sensor_id;sensor_type;location;lat;lon;timestamp;P1;durP1;ratioP1;P2;durP2;ratioP2
15651;SDS011;7926;43.576;1.458;2022-09-09T00:01:27;0.60;;;0.60;;
15651;SDS011;7926;43.576;1.458;2022-09-09T00:03:59;0.60;;;0.60;;
15651;SDS011;7926;43.576;1.458;2022-09-09T00:06:28;0.70;;;0.70;;
15651;SDS011;7926;43.576;1.458;2022-09-09T00:08:58;0.70;;;0.70;;
15651;SDS011;7926;43.576;1.458;2022-09-09T00:11:28;0.70;;;0.70;;
15651;SDS011;7926;43.576;1.458;2022-09-09T00:14:00;0.70;;;0.70;;
15651;SDS011;7926;43.576;1.458;2022-09-09T00:16:31;0.70;;;0.70;;
15651;SDS011;7926;43.576;1.458;2022-09-09T00:19:01;0.70;;;0.70;;
15651;SDS011;7926;43.576;1.458;2022-09-09T00:21:32;0.70;;;0.70;;
15651;SDS011;7926;43.576;1.458;2022-09-09T00:24:00;0.70;;;0.70;;
15651;SDS011;7926;43.576;1.458;2022-09-09T00:26:32;0.60;;;0.60;;
15651;SDS011;7926;43.576;1.458;2022-09-09T00:29:04;0.70;;;0.70;;
15651;SDS011;7926;43.576;1.458;2022-09-09T00:31:32;0.70;;;0.70;;
15651;SDS011;7926;43.576;1.458;2022-09-09T00:34:02;0.70;;;0.70;;
15651;SDS011;7926;43.576;1.458;2022-09-09T00:36:31;0.67;;;0.67;;
15651;SDS011;7926;43.576;1.458;2022-09-09T00:39:00;0.70;;;0.70;;
15651;SDS011;7926;43.576;1.458;2022-09-09T00:41:30;0.70;;;0.70;;
15651;SDS011;7926;43.576;1.458;2022-09-09T00:44:00;0.70;;;0.70;;
15651;SDS011;7926;43.576;1.458;2022-09-09T00:46:40;0.70;;;0.70;;
15651;SDS011;7926;43.576;1.458;2022-09-09T00:49:13;0.70;;;0.70;;
15651;SDS011;7926;43.576;1.458;2022-09-09T00:51:44;0.70;;;0.70;;
15651;SDS011;7926;43.576;1.458;2022-09-09T00:54:22;0.70;;;0.70;;
15651;SDS011;7926;43.576;1.458;2022-09-09T00:56:55;0.70;;;0.70;;
15651;SDS011;7926;43.576;1.458;2022-09-09T00:59:28;0.70;;;0.70;;
15651;SDS011;7926;43.576;1.458;2022-09-09T01:02:01;0.70;;;0.70;;
15651;SDS011;7926;43.576;1.458;2022-09-09T01:04:32;0.70;;;0.70;;
15651;SDS011;7926;43.576;1.458;2022-09-09T01:07:02;0.70;;;0.70;;
15651;SDS011;7926;43.576;1.458;2022-09-09T01:09:32;0.63;;;0.63;;
15651;SDS011;7926;43.576;1.458;2022-09-09T01:12:03;0.63;;;0.63;;
15651;SDS011;7926;43.576;1.458;2022-09-09T01:14:38;0.70;;;0.70;;
15651;SDS011;7926;43.576;1.458;2022-09-09T01:17:09;0.60;;;0.60;;
15651;SDS011;7926;43.576;1.458;2022-09-09T01:19:44;0.70;;;0.70;;
15651;SDS011;7926;43.576;1.458;2022-09-09T01:22:14;0.70;;;0.70;;
15651;SDS011;7926;43.576;1.458;2022-09-09T01:24:44;0.70;;;0.70;;
15651;SDS011;7926;43.576;1.458;2022-09-09T01:27:18;0.70;;;0.70;;
15651;SDS011;7926;43.576;1.458;2022-09-09T01:29:46;0.70;;;0.70;;
15651;SDS011;7926;43.576;1.458;2022-09-09T01:34:59;0.70;;;0.70;;
15651;SDS011;7926;43.576;1.458;2022-09-09T01:37:27;0.70;;;0.70;;
15651;SDS011;7926;43.576;1.458;2022-09-09T01:39:54;0.70;;;0.70;;
15651;SDS011;7926;43.576;1.458;2022-09-09T01:42:23;0.70;;;0.70;;
15651;SDS011;7926;43.576;1.458;2022-09-09T01:44:50;0.70;;;0.70;;
15651;SDS011;7926;43.576;1.458;2022-09-09T01:47:19;0.70;;;0.70;;
15651;SDS011;7926;43.576;1.458;2022-09-09T01:49:46;0.70;;;0.70;;
15651;SDS011;7926;43.576;1.458;2022-09-09T01:52:13;0.70;;;0.70;;
15651;SDS011;7926;43.576;1.458;2022-09-09T01:54:41;0.77;;;0.77;;
15651;SDS011;7926;43.576;1.458;2022-09-09T01:57:10;0.70;;;0.70;;
15651;SDS011;7926;43.576;1.458;2022-09-09T01:59:46;0.70;;;0.70;;
15651;SDS011;7926;43.576;1.458;2022-09-09T02:02:16;0.70;;;0.70;;
15651;SDS011;7926;43.576;1.458;2022-09-09T02:04:45;0.60;;;0.60;;
15651;SDS011;7926;43.576;1.458;2022-09-09T02:07:17;0.70;;;0.70;;
15651;SDS011;7926;43.576;1.458;2022-09-09T02:09:46;0.70;;;0.70;;
15651;SDS011;7926;43.576;1.458;2022-09-09T02:12:14;0.70;;;0.70;;
15651;SDS011;7926;43.576;1.458;2022-09-09T02:14:47;0.70;;;0.70;;
15651;SDS011;7926;43.576;1.458;2022-09-09T02:17:16;0.60;;;0.60;;
15651;SDS011;7926;43.576;1.458;2022-09-09T02:19:47;0.60;;;0.60;;
15651;SDS011;7926;43.576;1.458;2022-09-09T02:22:16;0.70;;;0.70;;
15651;SDS011;7926;43.576;1.458;2022-09-09T02:24:45;0.70;;;0.70;;
15651;SDS011;7926;43.576;1.458;2022-09-09T02:27:12;0.70;;;0.70;;
15651;SDS011;7926;43.576;1.458;2022-09-09T02:29:41;0.70;;;0.70;;
15651;SDS011;7926;43.576;1.458;2022-09-09T02:32:11;0.70;;;0.70;;
15651;SDS011;7926;43.576;1.458;2022-09-09T02:34:40;0.70;;;0.70;;
15651;SDS011;7926;43.576;1.458;2022-09-09T02:37:09;0.60;;;0.60;;
15651;SDS011;7926;43.576;1.458;2022-09-09T02:39:38;0.60;;;0.60;;
15651;SDS011;7926;43.576;1.458;2022-09-09T02:42:05;0.60;;;0.60;;
15651;SDS011;7926;43.576;1.458;2022-09-09T02:44:33;0.67;;;0.67;;
15651;SDS011;7926;43.576;1.458;2022-09-09T02:49:47;0.70;;;0.70;;
15651;SDS011;7926;43.576;1.458;2022-09-09T02:52:18;0.60;;;0.60;;
15651;SDS011;7926;43.576;1.458;2022-09-09T02:54:48;0.70;;;0.70;;
15651;SDS011;7926;43.576;1.458;2022-09-09T02:57:19;0.70;;;0.70;;
15651;SDS011;7926;43.576;1.458;2022-09-09T02:59:48;0.60;;;0.60;;
15651;SDS011;7926;43.576;1.458;2022-09-09T03:02:17;0.70;;;0.70;;
15651;SDS011;7926;43.576;1.458;2022-09-09T03:04:45;0.70;;;0.70;;
15651;SDS011;7926;43.576;1.458;2022-09-09T03:07:16;0.70;;;0.70;;
15651;SDS011;7926;43.576;1.458;2022-09-09T03:09:43;0.70;;;0.70;;
15651;SDS011;7926;43.576;1.458;2022-09-09T03:12:10;0.70;;;0.70;;
15651;SDS011;7926;43.576;1.458;2022-09-09T03:14:38;0.60;;;0.60;;
15651;SDS011;7926;43.576;1.458;2022-09-09T03:17:06;0.70;;;0.70;;
15651;SDS011;7926;43.576;1.458;2022-09-09T03:19:34;0.70;;;0.70;;
15651;SDS011;7926;43.576;1.458;2022-09-09T03:22:04;0.70;;;0.70;;
15651;SDS011;7926;43.576;1.458;2022-09-09T03:24:31;0.60;;;0.60;;
15651;SDS011;7926;43.576;1.458;2022-09-09T03:26:58;0.70;;;0.70;;
15651;SDS011;7926;43.576;1.458;2022-09-09T03:29:26;0.70;;;0.70;;
15651;SDS011;7926;43.576;1.458;2022-09-09T03:31:53;0.60;;;0.60;;
15651;SDS011;7926;43.576;1.458;2022-09-09T03:34:21;0.70;;;0.70;;
15651;SDS011;7926;43.576;1.458;2022-09-09T03:36:48;0.60;;;0.60;;
15651;SDS011;7926;43.576;1.458;2022-09-09T03:39:17;0.60;;;0.60;;
15651;SDS011;7926;43.576;1.458;2022-09-09T03:41:44;0.60;;;0.60;;
15651;SDS011;7926;43.576;1.458;2022-09-09T03:44:13;0.60;;;0.60;;
15651;SDS011;7926;43.576;1.458;2022-09-09T03:46:40;0.70;;;0.70;;
15651;SDS011;7926;43.576;1.458;2022-09-09T03:49:08;0.60;;;0.60;;
15651;SDS011;7926;43.576;1.458;2022-09-09T03:51:36;0.70;;;0.70;;
15651;SDS011;7926;43.576;1.458;2022-09-09T03:54:04;0.60;;;0.60;;
15651;SDS011;7926;43.576;1.458;2022-09-09T03:56:34;0.70;;;0.70;;
15651;SDS011;7926;43.576;1.458;2022-09-09T03:59:02;0.70;;;0.70;;
15651;SDS011;7926;43.576;1.458;2022-09-09T04:01:29;0.70;;;0.70;;
15651;SDS011;7926;43.576;1.458;2022-09-09T04:03:57;0.70;;;0.70;;
15651;SDS011;7926;43.576;1.458;2022-09-09T04:06:24;0.70;;;0.70;;
15651;SDS011;7926;43.576;1.458;2022-09-09T04:08:51;0.60;;;0.60;;
15651;SDS011;7926;43.576;1.458;2022-09-09T04:11:20;0.60;;;0.60;;
15651;SDS011;7926;43.576;1.458;2022-09-09T04:13:49;0.60;;;0.60;;
15651;SDS011;7926;43.576;1.458;2022-09-09T04:16:16;0.70;;;0.70;;
15651;SDS011;7926;43.576;1.458;2022-09-09T04:18:43;0.70;;;0.70;;
15651;SDS011;7926;43.576;1.458;2022-09-09T04:21:11;0.70;;;0.70;;
15651;SDS011;7926;43.576;1.458;2022-09-09T04:23:38;0.60;;;0.60;;
15651;SDS011;7926;43.576;1.458;2022-09-09T04:26:06;0.70;;;0.70;;
15651;SDS011;7926;43.576;1.458;2022-09-09T04:28:34;0.60;;;0.60;;
15651;SDS011;7926;43.576;1.458;2022-09-09T04:31:07;0.70;;;0.70;;
15651;SDS011;7926;43.576;1.458;2022-09-09T04:33:36;0.70;;;0.70;;
15651;SDS011;7926;43.576;1.458;2022-09-09T04:36:04;0.70;;;0.70;;
15651;SDS011;7926;43.576;1.458;2022-09-09T04:38:32;0.60;;;0.60;;
15651;SDS011;7926;43.576;1.458;2022-09-09T04:40:59;0.70;;;0.70;;
15651;SDS011;7926;43.576;1.458;2022-09-09T04:43:26;0.67;;;0.67;;
15651;SDS011;7926;43.576;1.458;2022-09-09T04:45:55;0.63;;;0.63;;
15651;SDS011;7926;43.576;1.458;2022-09-09T04:48:25;0.70;;;0.70;;
15651;SDS011;7926;43.576;1.458;2022-09-09T04:50:54;0.70;;;0.70;;
15651;SDS011;7926;43.576;1.458;2022-09-09T04:53:21;0.70;;;0.70;;
15651;SDS011;7926;43.576;1.458;2022-09-09T04:55:50;0.70;;;0.70;;
15651;SDS011;7926;43.576;1.458;2022-09-09T04:58:17;0.70;;;0.70;;
15651;SDS011;7926;43.576;1.458;2022-09-09T05:00:46;0.70;;;0.70;;
15651;SDS011;7926;43.576;1.458;2022-09-09T05:03:14;0.70;;;0.70;;
15651;SDS011;7926;43.576;1.458;2022-09-09T05:05:43;0.70;;;0.70;;
15651;SDS011;7926;43.576;1.458;2022-09-09T05:08:10;0.60;;;0.60;;
15651;SDS011;7926;43.576;1.458;2022-09-09T05:10:38;0.60;;;0.60;;
15651;SDS011;7926;43.576;1.458;2022-09-09T05:13:07;0.60;;;0.60;;
15651;SDS011;7926;43.576;1.458;2022-09-09T05:15:34;0.60;;;0.60;;
15651;SDS011;7926;43.576;1.458;2022-09-09T05:18:01;0.60;;;0.60;;
15651;SDS011;7926;43.576;1.458;2022-09-09T05:20:29;0.57;;;0.57;;
15651;SDS011;7926;43.576;1.458;2022-09-09T05:22:58;0.60;;;0.60;;
15651;SDS011;7926;43.576;1.458;2022-09-09T05:25:25;0.50;;;0.50;;
15651;SDS011;7926;43.576;1.458;2022-09-09T05:27:53;0.60;;;0.60;;
15651;SDS011;7926;43.576;1.458;2022-09-09T05:30:20;0.60;;;0.60;;
15651;SDS011;7926;43.576;1.458;2022-09-09T05:32:48;0.60;;;0.60;;
15651;SDS011;7926;43.576;1.458;2022-09-09T05:35:15;0.60;;;0.60;;
15651;SDS011;7926;43.576;1.458;2022-09-09T05:37:44;0.60;;;0.60;;
15651;SDS011;7926;43.576;1.458;2022-09-09T05:40:13;0.60;;;0.60;;
15651;SDS011;7926;43.576;1.458;2022-09-09T05:42:40;0.60;;;0.60;;
15651;SDS011;7926;43.576;1.458;2022-09-09T05:45:08;0.50;;;0.50;;
15651;SDS011;7926;43.576;1.458;2022-09-09T05:47:36;0.60;;;0.60;;
15651;SDS011;7926;43.576;1.458;2022-09-09T05:50:03;0.53;;;0.53;;
15651;SDS011;7926;43.576;1.458;2022-09-09T05:52:31;0.60;;;0.60;;
15651;SDS011;7926;43.576;1.458;2022-09-09T05:54:58;0.50;;;0.50;;
15651;SDS011;7926;43.576;1.458;2022-09-09T05:57:27;0.60;;;0.60;;
15651;SDS011;7926;43.576;1.458;2022-09-09T05:59:54;0.50;;;0.50;;
15651;SDS011;7926;43.576;1.458;2022-09-09T06:02:22;0.60;;;0.60;;
15651;SDS011;7926;43.576;1.458;2022-09-09T06:04:49;0.60;;;0.60;;
15651;SDS011;7926;43.576;1.458;2022-09-09T06:07:16;0.60;;;0.60;;
15651;SDS011;7926;43.576;1.458;2022-09-09T06:09:43;0.50;;;0.50;;
15651;SDS011;7926;43.576;1.458;2022-09-09T06:12:12;0.50;;;0.50;;
15651;SDS011;7926;43.576;1.458;2022-09-09T06:14:40;0.50;;;0.50;;
15651;SDS011;7926;43.576;1.458;2022-09-09T06:17:08;0.50;;;0.50;;
15651;SDS011;7926;43.576;1.458;2022-09-09T06:19:35;0.50;;;0.50;;
15651;SDS011;7926;43.576;1.458;2022-09-09T06:22:03;0.50;;;0.50;;
15651;SDS011;7926;43.576;1.458;2022-09-09T06:24:30;0.60;;;0.60;;
15651;SDS011;7926;43.576;1.458;2022-09-09T06:26:58;0.60;;;0.60;;
15651;SDS011;7926;43.576;1.458;2022-09-09T06:29:25;0.50;;;0.50;;
15651;SDS011;7926;43.576;1.458;2022-09-09T06:31:54;0.50;;;0.50;;
15651;SDS011;7926;43.576;1.458;2022-09-09T06:34:21;0.50;;;0.50;;
15651;SDS011;7926;43.576;1.458;2022-09-09T06:36:48;0.50;;;0.50;;
15651;SDS011;7926;43.576;1.458;2022-09-09T06:39:16;0.50;;;0.50;;
15651;SDS011;7926;43.576;1.458;2022-09-09T06:41:43;0.50;;;0.50;;
15651;SDS011;7926;43.576;1.458;2022-09-09T06:44:11;0.50;;;0.50;;
15651;SDS011;7926;43.576;1.458;2022-09-09T06:46:38;0.50;;;0.50;;
15651;SDS011;7926;43.576;1.458;2022-09-09T06:49:07;0.50;;;0.50;;
15651;SDS011;7926;43.576;1.458;2022-09-09T06:51:35;0.60;;;0.60;;
15651;SDS011;7926;43.576;1.458;2022-09-09T06:54:07;0.50;;;0.50;;
15651;SDS011;7926;43.576;1.458;2022-09-09T06:56:35;0.50;;;0.50;;
15651;SDS011;7926;43.576;1.458;2022-09-09T06:59:03;0.50;;;0.50;;
15651;SDS011;7926;43.576;1.458;2022-09-09T07:01:31;0.50;;;0.50;;
15651;SDS011;7926;43.576;1.458;2022-09-09T07:04:00;0.50;;;0.50;;
15651;SDS011;7926;43.576;1.458;2022-09-09T07:06:31;0.50;;;0.50;;
15651;SDS011;7926;43.576;1.458;2022-09-09T07:09:00;0.50;;;0.50;;
15651;SDS011;7926;43.576;1.458;2022-09-09T07:11:30;0.40;;;0.40;;
15651;SDS011;7926;43.576;1.458;2022-09-09T07:13:58;0.40;;;0.40;;
15651;SDS011;7926;43.576;1.458;2022-09-09T07:16:26;0.40;;;0.40;;
15651;SDS011;7926;43.576;1.458;2022-09-09T07:18:54;0.50;;;0.50;;
15651;SDS011;7926;43.576;1.458;2022-09-09T07:21:23;0.50;;;0.50;;
15651;SDS011;7926;43.576;1.458;2022-09-09T07:23:52;0.50;;;0.50;;
15651;SDS011;7926;43.576;1.458;2022-09-09T07:26:21;0.40;;;0.40;;
15651;SDS011;7926;43.576;1.458;2022-09-09T07:28:48;0.40;;;0.40;;
15651;SDS011;7926;43.576;1.458;2022-09-09T07:31:16;0.50;;;0.50;;
15651;SDS011;7926;43.576;1.458;2022-09-09T07:33:44;0.50;;;0.50;;
15651;SDS011;7926;43.576;1.458;2022-09-09T07:36:16;0.50;;;0.50;;
15651;SDS011;7926;43.576;1.458;2022-09-09T07:38:44;0.50;;;0.50;;
15651;SDS011;7926;43.576;1.458;2022-09-09T07:41:14;0.50;;;0.50;;
15651;SDS011;7926;43.576;1.458;2022-09-09T07:43:42;0.50;;;0.50;;
15651;SDS011;7926;43.576;1.458;2022-09-09T07:46:10;0.50;;;0.50;;
15651;SDS011;7926;43.576;1.458;2022-09-09T07:48:38;0.40;;;0.40;;
15651;SDS011;7926;43.576;1.458;2022-09-09T07:51:07;0.50;;;0.50;;
15651;SDS011;7926;43.576;1.458;2022-09-09T07:53:35;0.40;;;0.40;;
15651;SDS011;7926;43.576;1.458;2022-09-09T07:56:04;0.50;;;0.50;;
15651;SDS011;7926;43.576;1.458;2022-09-09T07:58:33;0.50;;;0.50;;
15651;SDS011;7926;43.576;1.458;2022-09-09T08:01:00;0.50;;;0.50;;
15651;SDS011;7926;43.576;1.458;2022-09-09T08:03:32;0.50;;;0.50;;
15651;SDS011;7926;43.576;1.458;2022-09-09T08:06:00;0.50;;;0.50;;
15651;SDS011;7926;43.576;1.458;2022-09-09T08:08:28;0.40;;;0.40;;
15651;SDS011;7926;43.576;1.458;2022-09-09T08:11:01;0.50;;;0.50;;
15651;SDS011;7926;43.576;1.458;2022-09-09T08:13:28;0.50;;;0.50;;
15651;SDS011;7926;43.576;1.458;2022-09-09T08:16:04;0.50;;;0.50;;
15651;SDS011;7926;43.576;1.458;2022-09-09T08:18:32;0.40;;;0.40;;
15651;SDS011;7926;43.576;1.458;2022-09-09T08:21:04;0.47;;;0.47;;
15651;SDS011;7926;43.576;1.458;2022-09-09T08:23:33;0.40;;;0.40;;
15651;SDS011;7926;43.576;1.458;2022-09-09T08:26:04;0.40;;;0.40;;
15651;SDS011;7926;43.576;1.458;2022-09-09T08:28:31;0.50;;;0.50;;
15651;SDS011;7926;43.576;1.458;2022-09-09T08:31:06;0.40;;;0.40;;
15651;SDS011;7926;43.576;1.458;2022-09-09T08:33:33;0.40;;;0.40;;
15651;SDS011;7926;43.576;1.458;2022-09-09T08:36:02;0.40;;;0.40;;
15651;SDS011;7926;43.576;1.458;2022-09-09T08:38:29;0.50;;;0.50;;
15651;SDS011;7926;43.576;1.458;2022-09-09T08:40:58;0.50;;;0.50;;
15651;SDS011;7926;43.576;1.458;2022-09-09T08:43:29;0.50;;;0.50;;
15651;SDS011;7926;43.576;1.458;2022-09-09T08:45:59;0.40;;;0.40;;
15651;SDS011;7926;43.576;1.458;2022-09-09T08:48:36;0.40;;;0.40;;
15651;SDS011;7926;43.576;1.458;2022-09-09T08:51:06;0.50;;;0.50;;
15651;SDS011;7926;43.576;1.458;2022-09-09T08:53:36;0.40;;;0.40;;
15651;SDS011;7926;43.576;1.458;2022-09-09T08:56:08;0.50;;;0.50;;
15651;SDS011;7926;43.576;1.458;2022-09-09T08:58:39;0.40;;;0.40;;
15651;SDS011;7926;43.576;1.458;2022-09-09T09:01:14;0.40;;;0.40;;
15651;SDS011;7926;43.576;1.458;2022-09-09T09:03:47;0.40;;;0.40;;
15651;SDS011;7926;43.576;1.458;2022-09-09T09:06:20;0.40;;;0.40;;
15651;SDS011;7926;43.576;1.458;2022-09-09T09:08:51;0.40;;;0.40;;
15651;SDS011;7926;43.576;1.458;2022-09-09T09:11:20;0.40;;;0.40;;
15651;SDS011;7926;43.576;1.458;2022-09-09T09:13:50;0.40;;;0.40;;
15651;SDS011;7926;43.576;1.458;2022-09-09T09:16:22;0.40;;;0.40;;
15651;SDS011;7926;43.576;1.458;2022-09-09T09:18:53;0.40;;;0.40;;
15651;SDS011;7926;43.576;1.458;2022-09-09T09:21:21;0.40;;;0.40;;
15651;SDS011;7926;43.576;1.458;2022-09-09T09:23:54;0.40;;;0.40;;
15651;SDS011;7926;43.576;1.458;2022-09-09T09:26:23;0.50;;;0.50;;
15651;SDS011;7926;43.576;1.458;2022-09-09T09:28:52;0.57;;;0.57;;
15651;SDS011;7926;43.576;1.458;2022-09-09T09:31:21;0.50;;;0.50;;
15651;SDS011;7926;43.576;1.458;2022-09-09T09:33:53;0.40;;;0.40;;
15651;SDS011;7926;43.576;1.458;2022-09-09T09:36:24;0.40;;;0.40;;
15651;SDS011;7926;43.576;1.458;2022-09-09T09:38:52;0.50;;;0.50;;
15651;SDS011;7926;43.576;1.458;2022-09-09T09:41:34;0.47;;;0.47;;
15651;SDS011;7926;43.576;1.458;2022-09-09T09:46:48;0.40;;;0.40;;
15651;SDS011;7926;43.576;1.458;2022-09-09T09:49:17;0.43;;;0.43;;
15651;SDS011;7926;43.576;1.458;2022-09-09T09:51:44;0.50;;;0.50;;
15651;SDS011;7926;43.576;1.458;2022-09-09T09:54:17;0.50;;;0.50;;
15651;SDS011;7926;43.576;1.458;2022-09-09T09:56:46;0.40;;;0.40;;
15651;SDS011;7926;43.576;1.458;2022-09-09T09:59:20;0.40;;;0.40;;
15651;SDS011;7926;43.576;1.458;2022-09-09T10:01:48;0.40;;;0.40;;
15651;SDS011;7926;43.576;1.458;2022-09-09T10:04:17;0.60;;;0.60;;
15651;SDS011;7926;43.576;1.458;2022-09-09T10:06:46;0.50;;;0.50;;
15651;SDS011;7926;43.576;1.458;2022-09-09T10:09:23;0.50;;;0.50;;
15651;SDS011;7926;43.576;1.458;2022-09-09T10:11:53;0.50;;;0.50;;
15651;SDS011;7926;43.576;1.458;2022-09-09T10:14:24;0.60;;;0.60;;
15651;SDS011;7926;43.576;1.458;2022-09-09T10:17:08;0.60;;;0.60;;
15651;SDS011;7926;43.576;1.458;2022-09-09T10:19:37;0.60;;;0.60;;
15651;SDS011;7926;43.576;1.458;2022-09-09T10:22:12;0.60;;;0.60;;
15651;SDS011;7926;43.576;1.458;2022-09-09T10:24:54;0.60;;;0.60;;
15651;SDS011;7926;43.576;1.458;2022-09-09T10:27:27;0.60;;;0.60;;
15651;SDS011;7926;43.576;1.458;2022-09-09T10:30:10;0.50;;;0.50;;
15651;SDS011;7926;43.576;1.458;2022-09-09T10:32:46;0.50;;;0.50;;
15651;SDS011;7926;43.576;1.458;2022-09-09T10:35:29;0.40;;;0.40;;
15651;SDS011;7926;43.576;1.458;2022-09-09T10:40:45;0.40;;;0.40;;
15651;SDS011;7926;43.576;1.458;2022-09-09T10:43:19;0.50;;;0.50;;
15651;SDS011;7926;43.576;1.458;2022-09-09T10:45:49;0.50;;;0.50;;
15651;SDS011;7926;43.576;1.458;2022-09-09T10:48:24;0.50;;;0.50;;
15651;SDS011;7926;43.576;1.458;2022-09-09T10:50:56;0.40;;;0.40;;
15651;SDS011;7926;43.576;1.458;2022-09-09T10:53:33;0.43;;;0.43;;
15651;SDS011;7926;43.576;1.458;2022-09-09T10:56:03;0.43;;;0.43;;
15651;SDS011;7926;43.576;1.458;2022-09-09T10:58:35;0.40;;;0.40;;
15651;SDS011;7926;43.576;1.458;2022-09-09T11:01:06;0.40;;;0.40;;
15651;SDS011;7926;43.576;1.458;2022-09-09T11:03:37;0.40;;;0.40;;
15651;SDS011;7926;43.576;1.458;2022-09-09T11:06:09;0.40;;;0.40;;
15651;SDS011;7926;43.576;1.458;2022-09-09T11:08:39;0.40;;;0.40;;
15651;SDS011;7926;43.576;1.458;2022-09-09T11:11:09;0.40;;;0.40;;
15651;SDS011;7926;43.576;1.458;2022-09-09T11:13:39;0.40;;;0.40;;
15651;SDS011;7926;43.576;1.458;2022-09-09T11:16:14;0.40;;;0.40;;
15651;SDS011;7926;43.576;1.458;2022-09-09T11:18:43;0.40;;;0.40;;
15651;SDS011;7926;43.576;1.458;2022-09-09T11:21:16;0.40;;;0.40;;
15651;SDS011;7926;43.576;1.458;2022-09-09T11:23:45;0.40;;;0.40;;
15651;SDS011;7926;43.576;1.458;2022-09-09T11:26:16;0.30;;;0.30;;
15651;SDS011;7926;43.576;1.458;2022-09-09T11:28:47;0.40;;;0.40;;
15651;SDS011;7926;43.576;1.458;2022-09-09T11:31:27;0.40;;;0.40;;
15651;SDS011;7926;43.576;1.458;2022-09-09T11:34:03;0.40;;;0.40;;
15651;SDS011;7926;43.576;1.458;2022-09-09T11:36:43;0.40;;;0.40;;
15651;SDS011;7926;43.576;1.458;2022-09-09T11:39:36;0.40;;;0.40;;
15651;SDS011;7926;43.576;1.458;2022-09-09T11:42:05;0.40;;;0.40;;
15651;SDS011;7926;43.576;1.458;2022-09-09T11:44:33;0.47;;;0.47;;
15651;SDS011;7926;43.576;1.458;2022-09-09T11:47:01;0.40;;;0.40;;
15651;SDS011;7926;43.576;1.458;2022-09-09T11:49:39;0.40;;;0.40;;
15651;SDS011;7926;43.576;1.458;2022-09-09T11:52:12;0.40;;;0.40;;
15651;SDS011;7926;43.576;1.458;2022-09-09T11:54:44;0.50;;;0.50;;
15651;SDS011;7926;43.576;1.458;2022-09-09T11:57:17;0.40;;;0.40;;
15651;SDS011;7926;43.576;1.458;2022-09-09T11:59:50;0.40;;;0.40;;
15651;SDS011;7926;43.576;1.458;2022-09-09T12:02:19;0.40;;;0.40;;
15651;SDS011;7926;43.576;1.458;2022-09-09T12:04:49;0.50;;;0.50;;
15651;SDS011;7926;43.576;1.458;2022-09-09T12:07:25;0.40;;;0.40;;
15651;SDS011;7926;43.576;1.458;2022-09-09T12:09:55;0.40;;;0.40;;
15651;SDS011;7926;43.576;1.458;2022-09-09T12:12:27;0.50;;;0.50;;
15651;SDS011;7926;43.576;1.458;2022-09-09T12:14:56;0.50;;;0.50;;
15651;SDS011;7926;43.576;1.458;2022-09-09T12:17:25;0.50;;;0.50;;
15651;SDS011;7926;43.576;1.458;2022-09-09T12:19:59;0.40;;;0.40;;
15651;SDS011;7926;43.576;1.458;2022-09-09T12:22:32;0.50;;;0.50;;
15651;SDS011;7926;43.576;1.458;2022-09-09T12:25:03;0.50;;;0.50;;
15651;SDS011;7926;43.576;1.458;2022-09-09T12:27:36;0.50;;;0.50;;
15651;SDS011;7926;43.576;1.458;2022-09-09T12:30:08;0.50;;;0.50;;
15651;SDS011;7926;43.576;1.458;2022-09-09T12:32:37;0.50;;;0.50;;
15651;SDS011;7926;43.576;1.458;2022-09-09T12:35:08;0.50;;;0.50;;
15651;SDS011;7926;43.576;1.458;2022-09-09T12:37:39;0.40;;;0.40;;
15651;SDS011;7926;43.576;1.458;2022-09-09T12:40:18;0.40;;;0.40;;
15651;SDS011;7926;43.576;1.458;2022-09-09T12:42:46;0.40;;;0.40;;
15651;SDS011;7926;43.576;1.458;2022-09-09T12:45:15;0.50;;;0.50;;
15651;SDS011;7926;43.576;1.458;2022-09-09T12:47:44;0.50;;;0.50;;
15651;SDS011;7926;43.576;1.458;2022-09-09T12:50:16;0.43;;;0.43;;
15651;SDS011;7926;43.576;1.458;2022-09-09T12:52:46;0.50;;;0.50;;
15651;SDS011;7926;43.576;1.458;2022-09-09T12:55:16;0.43;;;0.43;;
15651;SDS011;7926;43.576;1.458;2022-09-09T12:57:45;0.50;;;0.50;;
15651;SDS011;7926;43.576;1.458;2022-09-09T13:00:16;0.50;;;0.50;;
15651;SDS011;7926;43.576;1.458;2022-09-09T13:02:46;0.40;;;0.40;;
15651;SDS011;7926;43.576;1.458;2022-09-09T13:05:16;0.50;;;0.50;;
15651;SDS011;7926;43.576;1.458;2022-09-09T13:07:45;0.50;;;0.50;;
15651;SDS011;7926;43.576;1.458;2022-09-09T13:10:14;0.40;;;0.40;;
15651;SDS011;7926;43.576;1.458;2022-09-09T13:12:41;0.40;;;0.40;;
15651;SDS011;7926;43.576;1.458;2022-09-09T13:15:12;0.50;;;0.50;;
15651;SDS011;7926;43.576;1.458;2022-09-09T13:17:41;0.40;;;0.40;;
15651;SDS011;7926;43.576;1.458;2022-09-09T13:20:15;0.50;;;0.50;;
15651;SDS011;7926;43.576;1.458;2022-09-09T13:22:43;0.43;;;0.43;;
15651;SDS011;7926;43.576;1.458;2022-09-09T13:25:20;0.40;;;0.40;;
15651;SDS011;7926;43.576;1.458;2022-09-09T13:27:52;0.50;;;0.50;;
15651;SDS011;7926;43.576;1.458;2022-09-09T13:30:20;0.40;;;0.40;;
15651;SDS011;7926;43.576;1.458;2022-09-09T13:32:59;0.43;;;0.43;;
15651;SDS011;7926;43.576;1.458;2022-09-09T13:35:27;0.50;;;0.50;;
15651;SDS011;7926;43.576;1.458;2022-09-09T13:37:55;0.50;;;0.50;;
15651;SDS011;7926;43.576;1.458;2022-09-09T13:40:24;0.50;;;0.50;;
15651;SDS011;7926;43.576;1.458;2022-09-09T13:42:54;0.40;;;0.40;;
15651;SDS011;7926;43.576;1.458;2022-09-09T13:45:23;0.50;;;0.50;;
15651;SDS011;7926;43.576;1.458;2022-09-09T13:47:51;0.57;;;0.57;;
15651;SDS011;7926;43.576;1.458;2022-09-09T13:50:21;0.50;;;0.50;;
15651;SDS011;7926;43.576;1.458;2022-09-09T13:52:49;0.50;;;0.50;;
15651;SDS011;7926;43.576;1.458;2022-09-09T13:55:18;0.50;;;0.50;;
15651;SDS011;7926;43.576;1.458;2022-09-09T13:57:51;0.50;;;0.50;;
15651;SDS011;7926;43.576;1.458;2022-09-09T14:00:19;0.55;;;0.55;;
15651;SDS011;7926;43.576;1.458;2022-09-09T14:02:46;0.60;;;0.60;;
15651;SDS011;7926;43.576;1.458;2022-09-09T14:05:14;0.50;;;0.50;;
15651;SDS011;7926;43.576;1.458;2022-09-09T14:07:42;0.57;;;0.57;;
15651;SDS011;7926;43.576;1.458;2022-09-09T14:10:10;0.60;;;0.60;;
15651;SDS011;7926;43.576;1.458;2022-09-09T14:12:38;0.50;;;0.50;;
15651;SDS011;7926;43.576;1.458;2022-09-09T14:15:09;0.50;;;0.50;;
15651;SDS011;7926;43.576;1.458;2022-09-09T14:17:37;0.50;;;0.50;;
15651;SDS011;7926;43.576;1.458;2022-09-09T14:20:06;0.60;;;0.60;;
15651;SDS011;7926;43.576;1.458;2022-09-09T14:22:34;0.60;;;0.60;;
15651;SDS011;7926;43.576;1.458;2022-09-09T14:25:02;0.50;;;0.50;;
15651;SDS011;7926;43.576;1.458;2022-09-09T14:27:31;0.50;;;0.50;;
15651;SDS011;7926;43.576;1.458;2022-09-09T14:29:58;0.52;;;0.52;;
15651;SDS011;7926;43.576;1.458;2022-09-09T14:32:27;0.60;;;0.60;;
15651;SDS011;7926;43.576;1.458;2022-09-09T14:34:55;0.60;;;0.60;;
15651;SDS011;7926;43.576;1.458;2022-09-09T14:37:22;0.60;;;0.60;;
15651;SDS011;7926;43.576;1.458;2022-09-09T14:39:50;0.60;;;0.60;;
15651;SDS011;7926;43.576;1.458;2022-09-09T14:42:19;0.50;;;0.50;;
15651;SDS011;7926;43.576;1.458;2022-09-09T14:44:47;0.60;;;0.60;;
15651;SDS011;7926;43.576;1.458;2022-09-09T14:47:14;0.50;;;0.50;;
15651;SDS011;7926;43.576;1.458;2022-09-09T14:49:43;0.60;;;0.60;;
15651;SDS011;7926;43.576;1.458;2022-09-09T14:52:10;0.60;;;0.60;;
15651;SDS011;7926;43.576;1.458;2022-09-09T14:54:38;0.60;;;0.60;;
15651;SDS011;7926;43.576;1.458;2022-09-09T14:57:05;0.60;;;0.60;;
15651;SDS011;7926;43.576;1.458;2022-09-09T14:59:33;0.60;;;0.60;;
15651;SDS011;7926;43.576;1.458;2022-09-09T15:02:00;0.60;;;0.60;;
15651;SDS011;7926;43.576;1.458;2022-09-09T15:04:29;0.60;;;0.60;;
15651;SDS011;7926;43.576;1.458;2022-09-09T15:06:57;0.60;;;0.60;;
15651;SDS011;7926;43.576;1.458;2022-09-09T15:09:25;0.50;;;0.50;;
15651;SDS011;7926;43.576;1.458;2022-09-09T15:11:52;0.52;;;0.52;;
15651;SDS011;7926;43.576;1.458;2022-09-09T15:14:20;0.50;;;0.50;;
15651;SDS011;7926;43.576;1.458;2022-09-09T15:16:47;0.60;;;0.60;;
15651;SDS011;7926;43.576;1.458;2022-09-09T15:19:14;0.60;;;0.60;;
15651;SDS011;7926;43.576;1.458;2022-09-09T15:21:42;0.60;;;0.60;;
15651;SDS011;7926;43.576;1.458;2022-09-09T15:24:11;0.52;;;0.52;;
15651;SDS011;7926;43.576;1.458;2022-09-09T15:26:38;0.60;;;0.60;;